sensor_id;sensor_type;location;lat;lon;timestamp;temperature;humidity
38263;DHT22;24054;50.128;19.730;2023-04-24T00:01:39;21.80;48.50
38263;DHT22;24054;50.128;19.730;2023-04-24T00:04:06;21.80;48.50
38263;DHT22;24054;50.128;19.730;2023-04-24T00:06:36;21.80;48.50
38263;DHT22;24054;50.128;19.730;2023-04-24T00:09:04;21.80;48.50
38263;DHT22;24054;50.128;19.730;2023-04-24T00:11:31;21.80;48.50
38263;DHT22;24054;50.128;19.730;2023-04-24T00:13:58;21.80;48.50
38263;DHT22;24054;50.128;19.730;2023-04-24T00:16:25;21.80;48.60
38263;DHT22;24054;50.128;19.730;2023-04-24T00:18:53;21.80;48.60
38263;DHT22;24054;50.128;19.730;2023-04-24T00:21:20;21.70;48.50
38263;DHT22;24054;50.128;19.730;2023-04-24T00:23:51;21.70;48.50
38263;DHT22;24054;50.128;19.730;2023-04-24T00:26:18;21.70;48.50
38263;DHT22;24054;50.128;19.730;2023-04-24T00:28:45;21.70;48.50
38263;DHT22;24054;50.128;19.730;2023-04-24T00:31:12;21.70;48.50
38263;DHT22;24054;50.128;19.730;2023-04-24T00:33:39;21.70;48.50
38263;DHT22;24054;50.128;19.730;2023-04-24T00:36:07;21.70;48.50
38263;DHT22;24054;50.128;19.730;2023-04-24T00:38:34;21.70;48.60
38263;DHT22;24054;50.128;19.730;2023-04-24T00:41:01;21.70;48.60
38263;DHT22;24054;50.128;19.730;2023-04-24T00:43:28;21.70;48.60
38263;DHT22;24054;50.128;19.730;2023-04-24T00:45:55;21.70;48.60
38263;DHT22;24054;50.128;19.730;2023-04-24T00:48:24;21.70;48.60
38263;DHT22;24054;50.128;19.730;2023-04-24T00:50:52;21.60;48.50
38263;DHT22;24054;50.128;19.730;2023-04-24T00:53:20;21.70;48.60
38263;DHT22;24054;50.128;19.730;2023-04-24T00:55:47;21.70;48.60
38263;DHT22;24054;50.128;19.730;2023-04-24T00:58:14;21.70;48.60
38263;DHT22;24054;50.128;19.730;2023-04-24T01:00:41;21.60;48.60
38263;DHT22;24054;50.128;19.730;2023-04-24T01:03:08;21.70;48.70
38263;DHT22;24054;50.128;19.730;2023-04-24T01:05:36;21.60;48.60
38263;DHT22;24054;50.128;19.730;2023-04-24T01:08:03;21.60;48.70
38263;DHT22;24054;50.128;19.730;2023-04-24T01:10:33;21.60;48.70
38263;DHT22;24054;50.128;19.730;2023-04-24T01:13:01;21.60;48.70
38263;DHT22;24054;50.128;19.730;2023-04-24T01:15:28;21.60;48.70
38263;DHT22;24054;50.128;19.730;2023-04-24T01:17:55;21.60;48.70
38263;DHT22;24054;50.128;19.730;2023-04-24T01:20:22;21.60;48.70
38263;DHT22;24054;50.128;19.730;2023-04-24T01:22:54;21.60;48.70
38263;DHT22;24054;50.128;19.730;2023-04-24T01:25:22;21.60;48.70
38263;DHT22;24054;50.128;19.730;2023-04-24T01:27:49;21.60;48.80
38263;DHT22;24054;50.128;19.730;2023-04-24T01:30:17;21.60;48.80
38263;DHT22;24054;50.128;19.730;2023-04-24T01:32:44;21.60;48.80
38263;DHT22;24054;50.128;19.730;2023-04-24T01:35:12;21.60;48.80
38263;DHT22;24054;50.128;19.730;2023-04-24T01:37:39;21.60;48.80
38263;DHT22;24054;50.128;19.730;2023-04-24T01:40:08;21.50;48.80
38263;DHT22;24054;50.128;19.730;2023-04-24T01:42:35;21.50;48.80
38263;DHT22;24054;50.128;19.730;2023-04-24T01:45:04;21.50;48.80
38263;DHT22;24054;50.128;19.730;2023-04-24T01:47:31;21.50;48.80
38263;DHT22;24054;50.128;19.730;2023-04-24T01:49:58;21.50;48.80
38263;DHT22;24054;50.128;19.730;2023-04-24T01:52:25;21.50;48.80
38263;DHT22;24054;50.128;19.730;2023-04-24T01:54:54;21.50;48.80
38263;DHT22;24054;50.128;19.730;2023-04-24T01:57:23;21.50;48.90
38263;DHT22;24054;50.128;19.730;2023-04-24T01:59:50;21.50;48.90
38263;DHT22;24054;50.128;19.730;2023-04-24T02:02:17;21.60;48.90
38263;DHT22;24054;50.128;19.730;2023-04-24T02:04:46;21.50;48.90
38263;DHT22;24054;50.128;19.730;2023-04-24T02:07:13;21.50;48.90
38263;DHT22;24054;50.128;19.730;2023-04-24T02:09:40;21.50;48.90
38263;DHT22;24054;50.128;19.730;2023-04-24T02:12:07;21.50;48.90
38263;DHT22;24054;50.128;19.730;2023-04-24T02:14:35;21.50;48.90
38263;DHT22;24054;50.128;19.730;2023-04-24T02:17:03;21.50;48.90
38263;DHT22;24054;50.128;19.730;2023-04-24T02:19:30;21.50;48.90
38263;DHT22;24054;50.128;19.730;2023-04-24T02:21:57;21.50;49.00
38263;DHT22;24054;50.128;19.730;2023-04-24T02:24:24;21.50;49.00
38263;DHT22;24054;50.128;19.730;2023-04-24T02:26:52;21.50;49.00
38263;DHT22;24054;50.128;19.730;2023-04-24T02:29:19;21.50;49.00
38263;DHT22;24054;50.128;19.730;2023-04-24T02:31:47;21.40;48.90
38263;DHT22;24054;50.128;19.730;2023-04-24T02:34:14;21.40;49.00
38263;DHT22;24054;50.128;19.730;2023-04-24T02:36:41;21.40;48.90
38263;DHT22;24054;50.128;19.730;2023-04-24T02:39:08;21.40;49.00
38263;DHT22;24054;50.128;19.730;2023-04-24T02:41:36;21.40;49.00
38263;DHT22;24054;50.128;19.730;2023-04-24T02:44:03;21.40;49.00
38263;DHT22;24054;50.128;19.730;2023-04-24T02:46:30;21.40;49.00
38263;DHT22;24054;50.128;19.730;2023-04-24T02:48:58;21.40;49.00
38263;DHT22;24054;50.128;19.730;2023-04-24T02:51:25;21.40;49.00
38263;DHT22;24054;50.128;19.730;2023-04-24T02:53:52;21.40;49.00
38263;DHT22;24054;50.128;19.730;2023-04-24T02:56:19;21.40;49.00
38263;DHT22;24054;50.128;19.730;2023-04-24T02:58:46;21.40;49.00
38263;DHT22;24054;50.128;19.730;2023-04-24T03:01:13;21.40;49.00
38263;DHT22;24054;50.128;19.730;2023-04-24T03:03:40;21.40;49.00
38263;DHT22;24054;50.128;19.730;2023-04-24T03:06:08;21.40;49.00
38263;DHT22;24054;50.128;19.730;2023-04-24T03:08:35;21.40;49.00
38263;DHT22;24054;50.128;19.730;2023-04-24T03:11:02;21.40;49.00
38263;DHT22;24054;50.128;19.730;2023-04-24T03:13:29;21.40;49.00
38263;DHT22;24054;50.128;19.730;2023-04-24T03:15:56;21.30;48.90
38263;DHT22;24054;50.128;19.730;2023-04-24T03:18:23;21.40;49.00
38263;DHT22;24054;50.128;19.730;2023-04-24T03:20:51;21.40;49.00
38263;DHT22;24054;50.128;19.730;2023-04-24T03:23:19;21.30;49.00
38263;DHT22;24054;50.128;19.730;2023-04-24T03:25:46;21.30;49.00
38263;DHT22;24054;50.128;19.730;2023-04-24T03:28:14;21.30;49.60
38263;DHT22;24054;50.128;19.730;2023-04-24T03:30:41;21.30;49.00
38263;DHT22;24054;50.128;19.730;2023-04-24T03:33:08;21.30;49.00
38263;DHT22;24054;50.128;19.730;2023-04-24T03:35:35;21.30;49.00
38263;DHT22;24054;50.128;19.730;2023-04-24T03:38:02;21.30;49.00
38263;DHT22;24054;50.128;19.730;2023-04-24T03:40:31;21.30;49.00
38263;DHT22;24054;50.128;19.730;2023-04-24T03:42:59;21.30;49.00
38263;DHT22;24054;50.128;19.730;2023-04-24T03:45:26;21.30;49.00
38263;DHT22;24054;50.128;19.730;2023-04-24T03:47:52;21.30;49.00
38263;DHT22;24054;50.128;19.730;2023-04-24T03:50:19;21.30;49.00
38263;DHT22;24054;50.128;19.730;2023-04-24T03:52:46;21.30;49.00
38263;DHT22;24054;50.128;19.730;2023-04-24T03:55:13;21.20;49.00
38263;DHT22;24054;50.128;19.730;2023-04-24T03:57:42;21.30;49.00
38263;DHT22;24054;50.128;19.730;2023-04-24T04:00:10;21.30;49.00
38263;DHT22;24054;50.128;19.730;2023-04-24T04:02:37;21.30;49.00
38263;DHT22;24054;50.128;19.730;2023-04-24T04:05:05;21.20;49.00
38263;DHT22;24054;50.128;19.730;2023-04-24T04:07:32;21.20;49.00
38263;DHT22;24054;50.128;19.730;2023-04-24T04:09:58;21.30;49.00
38263;DHT22;24054;50.128;19.730;2023-04-24T04:12:25;21.20;49.00
38263;DHT22;24054;50.128;19.730;2023-04-24T04:14:54;21.20;49.00
38263;DHT22;24054;50.128;19.730;2023-04-24T04:17:21;21.20;49.00
38263;DHT22;24054;50.128;19.730;2023-04-24T04:19:48;21.20;49.00
38263;DHT22;24054;50.128;19.730;2023-04-24T04:22:15;21.20;49.00
38263;DHT22;24054;50.128;19.730;2023-04-24T04:24:42;21.20;49.00
38263;DHT22;24054;50.128;19.730;2023-04-24T04:27:09;21.20;49.00
38263;DHT22;24054;50.128;19.730;2023-04-24T04:29:36;21.20;49.00
38263;DHT22;24054;50.128;19.730;2023-04-24T04:32:05;21.20;49.00
38263;DHT22;24054;50.128;19.730;2023-04-24T04:34:32;21.20;49.00
38263;DHT22;24054;50.128;19.730;2023-04-24T04:36:59;21.20;49.00
38263;DHT22;24054;50.128;19.730;2023-04-24T04:39:27;21.20;49.00
38263;DHT22;24054;50.128;19.730;2023-04-24T04:41:55;21.20;49.00
38263;DHT22;24054;50.128;19.730;2023-04-24T04:44:22;21.20;49.00
38263;DHT22;24054;50.128;19.730;2023-04-24T04:46:49;21.20;49.00
38263;DHT22;24054;50.128;19.730;2023-04-24T04:49:20;21.20;49.00
38263;DHT22;24054;50.128;19.730;2023-04-24T04:51:47;21.20;49.00
38263;DHT22;24054;50.128;19.730;2023-04-24T04:54:14;21.10;48.90
38263;DHT22;24054;50.128;19.730;2023-04-24T04:56:41;21.10;48.90
38263;DHT22;24054;50.128;19.730;2023-04-24T04:59:08;21.10;48.90
38263;DHT22;24054;50.128;19.730;2023-04-24T05:01:36;21.10;48.90
38263;DHT22;24054;50.128;19.730;2023-04-24T05:04:03;21.10;48.90
38263;DHT22;24054;50.128;19.730;2023-04-24T05:06:31;21.10;48.90
38263;DHT22;24054;50.128;19.730;2023-04-24T05:08:58;21.10;48.90
38263;DHT22;24054;50.128;19.730;2023-04-24T05:11:25;21.10;48.90
38263;DHT22;24054;50.128;19.730;2023-04-24T05:13:52;21.10;48.90
38263;DHT22;24054;50.128;19.730;2023-04-24T05:16:19;21.10;48.90
38263;DHT22;24054;50.128;19.730;2023-04-24T05:18:47;21.10;48.90
38263;DHT22;24054;50.128;19.730;2023-04-24T05:21:14;21.10;49.00
38263;DHT22;24054;50.128;19.730;2023-04-24T05:23:42;21.10;49.00
38263;DHT22;24054;50.128;19.730;2023-04-24T05:26:09;21.10;49.00
38263;DHT22;24054;50.128;19.730;2023-04-24T05:28:36;21.10;49.10
38263;DHT22;24054;50.128;19.730;2023-04-24T05:31:03;21.10;49.20
38263;DHT22;24054;50.128;19.730;2023-04-24T05:33:30;21.10;49.30
38263;DHT22;24054;50.128;19.730;2023-04-24T05:35:57;21.10;49.30
38263;DHT22;24054;50.128;19.730;2023-04-24T05:38:24;21.20;49.50
38263;DHT22;24054;50.128;19.730;2023-04-24T05:40:52;21.20;49.50
38263;DHT22;24054;50.128;19.730;2023-04-24T05:43:19;21.20;49.50
38263;DHT22;24054;50.128;19.730;2023-04-24T05:45:46;21.30;49.50
38263;DHT22;24054;50.128;19.730;2023-04-24T05:48:13;21.30;49.80
38263;DHT22;24054;50.128;19.730;2023-04-24T05:50:40;21.30;49.90
38263;DHT22;24054;50.128;19.730;2023-04-24T05:53:07;21.30;50.00
38263;DHT22;24054;50.128;19.730;2023-04-24T05:55:38;21.40;50.20
38263;DHT22;24054;50.128;19.730;2023-04-24T05:58:07;21.40;50.40
38263;DHT22;24054;50.128;19.730;2023-04-24T06:00:35;21.40;50.50
38263;DHT22;24054;50.128;19.730;2023-04-24T06:03:02;21.50;50.70
38263;DHT22;24054;50.128;19.730;2023-04-24T06:05:29;21.50;50.70
38263;DHT22;24054;50.128;19.730;2023-04-24T06:07:56;21.50;50.70
38263;DHT22;24054;50.128;19.730;2023-04-24T06:10:23;21.50;50.80
38263;DHT22;24054;50.128;19.730;2023-04-24T06:12:51;21.50;50.80
38263;DHT22;24054;50.128;19.730;2023-04-24T06:15:19;21.50;50.80
38263;DHT22;24054;50.128;19.730;2023-04-24T06:17:46;21.50;50.90
38263;DHT22;24054;50.128;19.730;2023-04-24T06:20:13;21.50;50.90
38263;DHT22;24054;50.128;19.730;2023-04-24T06:22:40;21.60;51.00
38263;DHT22;24054;50.128;19.730;2023-04-24T06:25:08;21.60;51.70
38263;DHT22;24054;50.128;19.730;2023-04-24T06:27:35;21.60;52.20
38263;DHT22;24054;50.128;19.730;2023-04-24T06:30:02;21.70;52.50
38263;DHT22;24054;50.128;19.730;2023-04-24T06:32:30;21.70;52.80
38263;DHT22;24054;50.128;19.730;2023-04-24T06:34:57;21.70;52.80
38263;DHT22;24054;50.128;19.730;2023-04-24T06:37:27;21.70;52.70
38263;DHT22;24054;50.128;19.730;2023-04-24T06:39:54;21.80;53.00
38263;DHT22;24054;50.128;19.730;2023-04-24T06:42:21;21.80;53.20
38263;DHT22;24054;50.128;19.730;2023-04-24T06:44:50;21.80;53.90
38263;DHT22;24054;50.128;19.730;2023-04-24T06:47:17;21.90;53.30
38263;DHT22;24054;50.128;19.730;2023-04-24T06:49:46;21.80;52.90
38263;DHT22;24054;50.128;19.730;2023-04-24T06:52:13;21.90;53.00
38263;DHT22;24054;50.128;19.730;2023-04-24T06:54:41;21.90;52.80
38263;DHT22;24054;50.128;19.730;2023-04-24T06:57:08;21.90;52.80
38263;DHT22;24054;50.128;19.730;2023-04-24T06:59:36;21.90;52.70
38263;DHT22;24054;50.128;19.730;2023-04-24T07:02:03;21.90;52.80
38263;DHT22;24054;50.128;19.730;2023-04-24T07:04:31;22.00;52.90
38263;DHT22;24054;50.128;19.730;2023-04-24T07:07:11;22.00;53.00
38263;DHT22;24054;50.128;19.730;2023-04-24T07:09:40;22.00;53.00
38263;DHT22;24054;50.128;19.730;2023-04-24T07:12:08;22.00;53.80
38263;DHT22;24054;50.128;19.730;2023-04-24T07:14:36;22.00;53.30
38263;DHT22;24054;50.128;19.730;2023-04-24T07:17:03;22.10;53.30
38263;DHT22;24054;50.128;19.730;2023-04-24T07:19:31;22.10;53.50
38263;DHT22;24054;50.128;19.730;2023-04-24T07:21:58;22.10;53.00
38263;DHT22;24054;50.128;19.730;2023-04-24T07:24:27;22.10;52.60
38263;DHT22;24054;50.128;19.730;2023-04-24T07:26:54;22.10;52.20
38263;DHT22;24054;50.128;19.730;2023-04-24T07:29:22;22.10;51.60
38263;DHT22;24054;50.128;19.730;2023-04-24T07:31:49;22.10;51.00
38263;DHT22;24054;50.128;19.730;2023-04-24T07:34:16;22.10;49.90
38263;DHT22;24054;50.128;19.730;2023-04-24T07:36:43;22.00;49.80
38263;DHT22;24054;50.128;19.730;2023-04-24T07:39:10;22.00;49.60
38263;DHT22;24054;50.128;19.730;2023-04-24T07:41:39;22.00;49.10
38263;DHT22;24054;50.128;19.730;2023-04-24T07:44:06;22.00;48.90
38263;DHT22;24054;50.128;19.730;2023-04-24T07:46:33;22.00;48.80
38263;DHT22;24054;50.128;19.730;2023-04-24T07:49:00;22.00;48.40
38263;DHT22;24054;50.128;19.730;2023-04-24T07:51:27;22.00;48.40
38263;DHT22;24054;50.128;19.730;2023-04-24T07:53:54;22.10;49.10
38263;DHT22;24054;50.128;19.730;2023-04-24T07:56:22;22.00;48.50
38263;DHT22;24054;50.128;19.730;2023-04-24T07:58:50;22.10;48.80
38263;DHT22;24054;50.128;19.730;2023-04-24T08:01:17;22.10;48.80
38263;DHT22;24054;50.128;19.730;2023-04-24T08:03:45;22.10;48.90
38263;DHT22;24054;50.128;19.730;2023-04-24T08:06:12;22.20;49.00
38263;DHT22;24054;50.128;19.730;2023-04-24T08:08:39;22.20;49.20
38263;DHT22;24054;50.128;19.730;2023-04-24T08:11:06;22.20;49.30
38263;DHT22;24054;50.128;19.730;2023-04-24T08:13:33;22.30;50.00
38263;DHT22;24054;50.128;19.730;2023-04-24T08:16:01;22.30;50.10
38263;DHT22;24054;50.128;19.730;2023-04-24T08:18:28;22.40;49.60
38263;DHT22;24054;50.128;19.730;2023-04-24T08:20:55;22.40;49.80
38263;DHT22;24054;50.128;19.730;2023-04-24T08:23:27;22.40;49.80
38263;DHT22;24054;50.128;19.730;2023-04-24T08:25:55;22.40;50.00
38263;DHT22;24054;50.128;19.730;2023-04-24T08:28:22;22.50;50.10
38263;DHT22;24054;50.128;19.730;2023-04-24T08:30:51;22.50;50.20
38263;DHT22;24054;50.128;19.730;2023-04-24T08:33:22;22.60;50.30
38263;DHT22;24054;50.128;19.730;2023-04-24T08:35:49;22.60;50.50
38263;DHT22;24054;50.128;19.730;2023-04-24T08:38:17;22.70;50.60
38263;DHT22;24054;50.128;19.730;2023-04-24T08:40:44;22.70;50.80
38263;DHT22;24054;50.128;19.730;2023-04-24T08:43:14;22.70;50.70
38263;DHT22;24054;50.128;19.730;2023-04-24T08:45:43;22.80;50.90
38263;DHT22;24054;50.128;19.730;2023-04-24T08:48:10;22.80;51.00
38263;DHT22;24054;50.128;19.730;2023-04-24T08:50:40;22.90;51.20
38263;DHT22;24054;50.128;19.730;2023-04-24T08:53:08;23.00;51.30
38263;DHT22;24054;50.128;19.730;2023-04-24T08:55:36;23.00;51.50
38263;DHT22;24054;50.128;19.730;2023-04-24T08:58:04;23.00;51.70
38263;DHT22;24054;50.128;19.730;2023-04-24T09:00:31;23.00;51.30
38263;DHT22;24054;50.128;19.730;2023-04-24T09:03:00;23.00;50.10
38263;DHT22;24054;50.128;19.730;2023-04-24T09:05:29;23.00;50.10
38263;DHT22;24054;50.128;19.730;2023-04-24T09:07:59;23.10;50.00
38263;DHT22;24054;50.128;19.730;2023-04-24T09:10:29;23.10;50.20
38263;DHT22;24054;50.128;19.730;2023-04-24T09:12:56;23.10;50.20
38263;DHT22;24054;50.128;19.730;2023-04-24T09:15:27;23.20;50.30
38263;DHT22;24054;50.128;19.730;2023-04-24T09:17:54;23.20;50.30
38263;DHT22;24054;50.128;19.730;2023-04-24T09:20:22;23.30;50.40
38263;DHT22;24054;50.128;19.730;2023-04-24T09:22:53;23.30;50.50
38263;DHT22;24054;50.128;19.730;2023-04-24T09:25:22;23.40;50.60
38263;DHT22;24054;50.128;19.730;2023-04-24T09:27:53;23.40;50.70
38263;DHT22;24054;50.128;19.730;2023-04-24T09:30:21;23.50;50.70
38263;DHT22;24054;50.128;19.730;2023-04-24T09:32:48;23.50;50.70
38263;DHT22;24054;50.128;19.730;2023-04-24T09:35:15;23.60;50.90
38263;DHT22;24054;50.128;19.730;2023-04-24T09:37:43;23.60;50.90
38263;DHT22;24054;50.128;19.730;2023-04-24T09:40:12;23.70;51.00
38263;DHT22;24054;50.128;19.730;2023-04-24T09:42:43;23.80;51.20
38263;DHT22;24054;50.128;19.730;2023-04-24T09:45:11;23.80;51.20
38263;DHT22;24054;50.128;19.730;2023-04-24T09:47:39;23.90;51.40
38263;DHT22;24054;50.128;19.730;2023-04-24T09:50:11;23.90;50.20
38263;DHT22;24054;50.128;19.730;2023-04-24T09:52:43;23.90;49.50
38263;DHT22;24054;50.128;19.730;2023-04-24T09:55:18;23.90;48.20
38263;DHT22;24054;50.128;19.730;2023-04-24T09:57:52;23.90;48.10
38263;DHT22;24054;50.128;19.730;2023-04-24T10:00:23;23.90;47.80
38263;DHT22;24054;50.128;19.730;2023-04-24T10:03:03;23.90;47.80
38263;DHT22;24054;50.128;19.730;2023-04-24T10:05:33;23.90;47.70
38263;DHT22;24054;50.128;19.730;2023-04-24T10:08:03;23.90;47.50
38263;DHT22;24054;50.128;19.730;2023-04-24T10:10:33;23.90;47.80
38263;DHT22;24054;50.128;19.730;2023-04-24T10:13:07;24.00;47.70
38263;DHT22;24054;50.128;19.730;2023-04-24T10:15:34;24.00;47.80
38263;DHT22;24054;50.128;19.730;2023-04-24T10:18:02;24.00;47.90
38263;DHT22;24054;50.128;19.730;2023-04-24T10:20:32;24.10;47.60
38263;DHT22;24054;50.128;19.730;2023-04-24T10:23:00;24.10;46.80
38263;DHT22;24054;50.128;19.730;2023-04-24T10:25:28;24.10;45.60
38263;DHT22;24054;50.128;19.730;2023-04-24T10:27:56;24.00;45.70
38263;DHT22;24054;50.128;19.730;2023-04-24T10:30:27;23.90;45.00
38263;DHT22;24054;50.128;19.730;2023-04-24T10:32:55;23.90;44.00
38263;DHT22;24054;50.128;19.730;2023-04-24T10:35:22;23.90;44.00
38263;DHT22;24054;50.128;19.730;2023-04-24T10:37:56;23.80;44.00
38263;DHT22;24054;50.128;19.730;2023-04-24T10:40:26;23.80;43.10
38263;DHT22;24054;50.128;19.730;2023-04-24T10:42:53;23.70;42.90
38263;DHT22;24054;50.128;19.730;2023-04-24T10:45:21;23.70;43.00
38263;DHT22;24054;50.128;19.730;2023-04-24T10:47:57;23.70;43.00
38263;DHT22;24054;50.128;19.730;2023-04-24T10:50:25;23.70;42.90
38263;DHT22;24054;50.128;19.730;2023-04-24T10:52:53;23.80;43.30
38263;DHT22;24054;50.128;19.730;2023-04-24T10:55:46;23.80;43.10
38263;DHT22;24054;50.128;19.730;2023-04-24T10:58:13;23.80;43.40
38263;DHT22;24054;50.128;19.730;2023-04-24T11:00:42;23.80;43.10
38263;DHT22;24054;50.128;19.730;2023-04-24T11:03:25;23.90;43.20
38263;DHT22;24054;50.128;19.730;2023-04-24T11:05:56;23.90;43.40
38263;DHT22;24054;50.128;19.730;2023-04-24T11:08:26;23.90;43.30
38263;DHT22;24054;50.128;19.730;2023-04-24T11:11:01;23.90;43.30
38263;DHT22;24054;50.128;19.730;2023-04-24T11:16:44;24.00;43.60
38263;DHT22;24054;50.128;19.730;2023-04-24T11:19:21;24.00;43.60
38263;DHT22;24054;50.128;19.730;2023-04-24T11:21:55;24.00;43.60
38263;DHT22;24054;50.128;19.730;2023-04-24T11:24:31;24.00;43.70
38263;DHT22;24054;50.128;19.730;2023-04-24T11:27:01;24.10;43.80
38263;DHT22;24054;50.128;19.730;2023-04-24T11:29:45;24.00;43.70
38263;DHT22;24054;50.128;19.730;2023-04-24T11:32:23;24.10;43.90
38263;DHT22;24054;50.128;19.730;2023-04-24T11:34:54;24.10;43.70
38263;DHT22;24054;50.128;19.730;2023-04-24T11:37:23;24.10;43.80
38263;DHT22;24054;50.128;19.730;2023-04-24T11:39:52;24.10;44.00
38263;DHT22;24054;50.128;19.730;2023-04-24T11:42:20;24.20;44.20
38263;DHT22;24054;50.128;19.730;2023-04-24T11:44:48;24.20;44.40
38263;DHT22;24054;50.128;19.730;2023-04-24T11:47:15;24.20;44.60
38263;DHT22;24054;50.128;19.730;2023-04-24T11:49:42;24.30;44.80
38263;DHT22;24054;50.128;19.730;2023-04-24T11:52:11;24.30;45.00
38263;DHT22;24054;50.128;19.730;2023-04-24T11:54:47;24.30;45.10
38263;DHT22;24054;50.128;19.730;2023-04-24T11:57:14;24.30;45.30
38263;DHT22;24054;50.128;19.730;2023-04-24T11:59:43;24.40;45.60
38263;DHT22;24054;50.128;19.730;2023-04-24T12:02:20;24.40;45.70
38263;DHT22;24054;50.128;19.730;2023-04-24T12:04:48;24.40;45.70
38263;DHT22;24054;50.128;19.730;2023-04-24T12:07:16;24.40;45.90
38263;DHT22;24054;50.128;19.730;2023-04-24T12:09:43;24.40;46.00
38263;DHT22;24054;50.128;19.730;2023-04-24T12:12:12;24.40;46.00
38263;DHT22;24054;50.128;19.730;2023-04-24T12:14:47;24.40;46.30
38263;DHT22;24054;50.128;19.730;2023-04-24T12:17:15;24.40;46.50
38263;DHT22;24054;50.128;19.730;2023-04-24T12:19:46;24.40;46.80
38263;DHT22;24054;50.128;19.730;2023-04-24T12:22:14;24.40;46.90
38263;DHT22;24054;50.128;19.730;2023-04-24T12:25:00;24.40;47.60
38263;DHT22;24054;50.128;19.730;2023-04-24T12:27:30;24.40;46.90
38263;DHT22;24054;50.128;19.730;2023-04-24T12:29:58;24.40;47.20
38263;DHT22;24054;50.128;19.730;2023-04-24T12:32:26;24.40;47.80
38263;DHT22;24054;50.128;19.730;2023-04-24T12:34:55;24.40;47.80
38263;DHT22;24054;50.128;19.730;2023-04-24T12:37:23;24.40;48.30
38263;DHT22;24054;50.128;19.730;2023-04-24T12:40:03;24.40;48.60
38263;DHT22;24054;50.128;19.730;2023-04-24T12:42:32;24.40;49.10
38263;DHT22;24054;50.128;19.730;2023-04-24T12:45:01;24.40;47.70
38263;DHT22;24054;50.128;19.730;2023-04-24T12:47:29;24.30;46.50
38263;DHT22;24054;50.128;19.730;2023-04-24T12:49:56;24.30;45.40
38263;DHT22;24054;50.128;19.730;2023-04-24T12:52:23;24.20;44.50
38263;DHT22;24054;50.128;19.730;2023-04-24T12:54:53;24.10;43.50
38263;DHT22;24054;50.128;19.730;2023-04-24T12:57:23;24.00;41.80
38263;DHT22;24054;50.128;19.730;2023-04-24T12:59:50;23.80;40.90
38263;DHT22;24054;50.128;19.730;2023-04-24T13:02:17;23.70;40.80
38263;DHT22;24054;50.128;19.730;2023-04-24T13:04:44;23.60;41.00
38263;DHT22;24054;50.128;19.730;2023-04-24T13:07:12;23.50;41.10
38263;DHT22;24054;50.128;19.730;2023-04-24T13:09:40;23.50;41.30
38263;DHT22;24054;50.128;19.730;2023-04-24T13:12:08;23.40;41.60
38263;DHT22;24054;50.128;19.730;2023-04-24T13:14:37;23.40;41.80
38263;DHT22;24054;50.128;19.730;2023-04-24T13:17:04;23.40;42.10
38263;DHT22;24054;50.128;19.730;2023-04-24T13:19:36;23.30;42.30
38263;DHT22;24054;50.128;19.730;2023-04-24T13:22:03;23.30;42.10
38263;DHT22;24054;50.128;19.730;2023-04-24T13:24:31;23.30;42.20
38263;DHT22;24054;50.128;19.730;2023-04-24T13:26:58;23.30;42.20
38263;DHT22;24054;50.128;19.730;2023-04-24T13:29:26;23.30;42.30
38263;DHT22;24054;50.128;19.730;2023-04-24T13:31:55;23.30;42.00
38263;DHT22;24054;50.128;19.730;2023-04-24T13:34:22;23.30;41.60
38263;DHT22;24054;50.128;19.730;2023-04-24T13:36:50;23.20;41.90
38263;DHT22;24054;50.128;19.730;2023-04-24T13:39:18;23.20;42.10
38263;DHT22;24054;50.128;19.730;2023-04-24T13:41:45;23.20;42.00
38263;DHT22;24054;50.128;19.730;2023-04-24T13:44:14;23.20;42.00
38263;DHT22;24054;50.128;19.730;2023-04-24T13:46:41;23.20;42.10
38263;DHT22;24054;50.128;19.730;2023-04-24T13:49:11;23.20;42.20
38263;DHT22;24054;50.128;19.730;2023-04-24T13:51:39;23.20;42.10
38263;DHT22;24054;50.128;19.730;2023-04-24T13:54:06;23.10;42.00
38263;DHT22;24054;50.128;19.730;2023-04-24T13:56:34;23.10;42.10
38263;DHT22;24054;50.128;19.730;2023-04-24T13:59:01;23.10;42.10
38263;DHT22;24054;50.128;19.730;2023-04-24T14:01:28;23.00;42.30
38263;DHT22;24054;50.128;19.730;2023-04-24T14:03:58;23.10;42.60
38263;DHT22;24054;50.128;19.730;2023-04-24T14:06:26;23.10;42.60
38263;DHT22;24054;50.128;19.730;2023-04-24T14:08:54;23.00;42.60
38263;DHT22;24054;50.128;19.730;2023-04-24T14:11:21;23.10;42.80
38263;DHT22;24054;50.128;19.730;2023-04-24T14:13:48;23.00;42.70
38263;DHT22;24054;50.128;19.730;2023-04-24T14:16:18;23.00;42.80
38263;DHT22;24054;50.128;19.730;2023-04-24T14:18:45;23.00;42.90
38263;DHT22;24054;50.128;19.730;2023-04-24T14:21:12;23.00;43.00
38263;DHT22;24054;50.128;19.730;2023-04-24T14:23:40;23.00;43.20
38263;DHT22;24054;50.128;19.730;2023-04-24T14:26:07;23.00;43.20
38263;DHT22;24054;50.128;19.730;2023-04-24T14:28:34;23.00;43.30
38263;DHT22;24054;50.128;19.730;2023-04-24T14:31:01;23.00;43.50
38263;DHT22;24054;50.128;19.730;2023-04-24T14:33:28;23.00;43.50
38263;DHT22;24054;50.128;19.730;2023-04-24T14:35:55;23.00;43.80
38263;DHT22;24054;50.128;19.730;2023-04-24T14:38:22;23.00;43.90
38263;DHT22;24054;50.128;19.730;2023-04-24T14:40:51;23.10;44.10
38263;DHT22;24054;50.128;19.730;2023-04-24T14:43:18;23.10;44.30
38263;DHT22;24054;50.128;19.730;2023-04-24T14:45:45;23.10;44.40
38263;DHT22;24054;50.128;19.730;2023-04-24T14:48:12;23.10;44.70
38263;DHT22;24054;50.128;19.730;2023-04-24T14:50:40;23.00;44.70
38263;DHT22;24054;50.128;19.730;2023-04-24T14:53:07;23.10;44.90
38263;DHT22;24054;50.128;19.730;2023-04-24T14:55:34;23.10;45.00
38263;DHT22;24054;50.128;19.730;2023-04-24T14:58:07;23.10;45.30
38263;DHT22;24054;50.128;19.730;2023-04-24T15:00:34;23.10;45.40
38263;DHT22;24054;50.128;19.730;2023-04-24T15:03:01;23.10;45.70
38263;DHT22;24054;50.128;19.730;2023-04-24T15:05:28;23.20;45.90
38263;DHT22;24054;50.128;19.730;2023-04-24T15:07:55;23.20;46.10
38263;DHT22;24054;50.128;19.730;2023-04-24T15:10:23;23.20;46.30
38263;DHT22;24054;50.128;19.730;2023-04-24T15:12:51;23.20;46.40
38263;DHT22;24054;50.128;19.730;2023-04-24T15:15:20;23.20;46.60
38263;DHT22;24054;50.128;19.730;2023-04-24T15:17:46;23.10;46.80
38263;DHT22;24054;50.128;19.730;2023-04-24T15:20:13;23.20;46.40
38263;DHT22;24054;50.128;19.730;2023-04-24T15:22:40;23.20;46.70
38263;DHT22;24054;50.128;19.730;2023-04-24T15:25:08;23.20;46.60